Pagina principale
METAR-TAF:

METAR-TAF

Aeroporti :

Lannion, Francia

latitudine: 48-45N, longitudine: 003-28W, altezza: 89 m

Osservazione

Il bollettino è stato emesso 35 minuti fa, alle 17:00 UTC
Vento 15 kt da est/nord-est, variando fra nord/nord-est e est
Temperature 22°C
Umidità 41%
Pressione 1016 hPa
Visibilità 10 km o più
nessuna nube inferiore a 1500 m e nessun cumulonembo

METAR: LFRO 311700Z AUTO 06015KT 030V090 CAVOK 22/08 Q1016

Ora: 19:35 (17:35 UTC)


TAF: mancante

Osservazioni e previsioni meteorologiche di più di 4000 aeroporti (messaggi METAR e TAF).

Le stazioni disponibili sono rappresentate dai dischi gialli e rossi sulla carta.

Puntare il mouse per vedere il nome della stazione.

Clicca sopra per visualizzare le osservazioni e previsioni meteorologiche.

Per cambiare la mappa : fare clic sui pulsanti verdi con una croce nera per ingrandire, il pulsante verde con un trattino per diminuire, o sulla freccia verde per le mappe adiacenti.


METAR-TAF: